sensor_id;sensor_type;location;lat;lon;timestamp;P1;durP1;ratioP1;P2;durP2;ratioP2
73959;SDS011;62316;48.920;2.342;2023-06-19T00:00:50;6.00;;;6.00;;
73959;SDS011;62316;48.920;2.342;2023-06-19T00:03:15;5.00;;;5.00;;
73959;SDS011;62316;48.920;2.342;2023-06-19T00:05:40;7.00;;;6.00;;
73959;SDS011;62316;48.920;2.342;2023-06-19T00:08:06;7.33;;;7.00;;
73959;SDS011;62316;48.920;2.342;2023-06-19T00:10:31;3.00;;;3.00;;
73959;SDS011;62316;48.920;2.342;2023-06-19T00:12:59;5.67;;;5.67;;
73959;SDS011;62316;48.920;2.342;2023-06-19T00:15:25;8.33;;;7.33;;
73959;SDS011;62316;48.920;2.342;2023-06-19T00:17:50;6.33;;;6.33;;
73959;SDS011;62316;48.920;2.342;2023-06-19T00:20:15;10.33;;;8.00;;
73959;SDS011;62316;48.920;2.342;2023-06-19T00:22:41;6.33;;;6.33;;
73959;SDS011;62316;48.920;2.342;2023-06-19T00:25:07;8.33;;;6.00;;
73959;SDS011;62316;48.920;2.342;2023-06-19T00:27:32;8.33;;;5.00;;
73959;SDS011;62316;48.920;2.342;2023-06-19T00:29:58;9.67;;;6.67;;
73959;SDS011;62316;48.920;2.342;2023-06-19T00:32:30;11.00;;;8.75;;
73959;SDS011;62316;48.920;2.342;2023-06-19T00:34:55;6.00;;;6.00;;
73959;SDS011;62316;48.920;2.342;2023-06-19T00:37:21;5.33;;;5.33;;
73959;SDS011;62316;48.920;2.342;2023-06-19T00:39:46;7.00;;;7.00;;
73959;SDS011;62316;48.920;2.342;2023-06-19T00:42:11;8.00;;;8.00;;
73959;SDS011;62316;48.920;2.342;2023-06-19T00:44:37;9.00;;;8.00;;
73959;SDS011;62316;48.920;2.342;2023-06-19T00:47:02;10.67;;;6.00;;
73959;SDS011;62316;48.920;2.342;2023-06-19T00:49:29;8.67;;;8.00;;
73959;SDS011;62316;48.920;2.342;2023-06-19T00:51:55;10.00;;;8.00;;
73959;SDS011;62316;48.920;2.342;2023-06-19T00:54:21;9.00;;;7.00;;
73959;SDS011;62316;48.920;2.342;2023-06-19T00:56:46;8.00;;;8.00;;
73959;SDS011;62316;48.920;2.342;2023-06-19T00:59:17;11.33;;;9.67;;
73959;SDS011;62316;48.920;2.342;2023-06-19T01:01:43;13.75;;;9.75;;
73959;SDS011;62316;48.920;2.342;2023-06-19T01:04:09;11.50;;;9.25;;
73959;SDS011;62316;48.920;2.342;2023-06-19T01:06:38;11.33;;;9.00;;
73959;SDS011;62316;48.920;2.342;2023-06-19T01:09:10;8.33;;;8.33;;
73959;SDS011;62316;48.920;2.342;2023-06-19T01:11:39;8.25;;;8.25;;
73959;SDS011;62316;48.920;2.342;2023-06-19T01:14:26;8.00;;;7.00;;
73959;SDS011;62316;48.920;2.342;2023-06-19T01:16:53;8.33;;;8.33;;
73959;SDS011;62316;48.920;2.342;2023-06-19T01:19:19;10.50;;;8.75;;
73959;SDS011;62316;48.920;2.342;2023-06-19T01:21:46;11.00;;;10.00;;
73959;SDS011;62316;48.920;2.342;2023-06-19T01:24:13;9.00;;;9.00;;
73959;SDS011;62316;48.920;2.342;2023-06-19T01:26:39;7.75;;;7.25;;
73959;SDS011;62316;48.920;2.342;2023-06-19T01:29:04;11.00;;;11.00;;
73959;SDS011;62316;48.920;2.342;2023-06-19T01:31:31;12.50;;;11.75;;
73959;SDS011;62316;48.920;2.342;2023-06-19T01:34:01;9.00;;;7.00;;
73959;SDS011;62316;48.920;2.342;2023-06-19T01:36:28;10.00;;;8.00;;
73959;SDS011;62316;48.920;2.342;2023-06-19T01:38:54;7.25;;;6.00;;
73959;SDS011;62316;48.920;2.342;2023-06-19T01:41:21;8.75;;;8.75;;
73959;SDS011;62316;48.920;2.342;2023-06-19T01:43:48;9.67;;;9.67;;
73959;SDS011;62316;48.920;2.342;2023-06-19T01:46:14;8.33;;;8.33;;
73959;SDS011;62316;48.920;2.342;2023-06-19T01:48:40;12.00;;;10.25;;
73959;SDS011;62316;48.920;2.342;2023-06-19T01:51:05;10.67;;;10.67;;
73959;SDS011;62316;48.920;2.342;2023-06-19T01:53:31;10.33;;;9.33;;
73959;SDS011;62316;48.920;2.342;2023-06-19T01:55:57;9.33;;;8.33;;
73959;SDS011;62316;48.920;2.342;2023-06-19T01:58:23;8.33;;;8.33;;
73959;SDS011;62316;48.920;2.342;2023-06-19T02:00:48;9.75;;;9.75;;
73959;SDS011;62316;48.920;2.342;2023-06-19T02:03:14;11.33;;;10.33;;
73959;SDS011;62316;48.920;2.342;2023-06-19T02:05:39;10.33;;;8.67;;
73959;SDS011;62316;48.920;2.342;2023-06-19T02:08:05;14.75;;;11.75;;
73959;SDS011;62316;48.920;2.342;2023-06-19T02:10:31;10.75;;;9.50;;
73959;SDS011;62316;48.920;2.342;2023-06-19T02:12:56;15.00;;;12.75;;
73959;SDS011;62316;48.920;2.342;2023-06-19T02:15:25;11.00;;;9.33;;
73959;SDS011;62316;48.920;2.342;2023-06-19T02:17:50;9.75;;;9.75;;
73959;SDS011;62316;48.920;2.342;2023-06-19T02:20:19;10.33;;;8.67;;
73959;SDS011;62316;48.920;2.342;2023-06-19T02:22:51;13.67;;;11.00;;
73959;SDS011;62316;48.920;2.342;2023-06-19T02:25:17;11.75;;;11.75;;
73959;SDS011;62316;48.920;2.342;2023-06-19T02:27:42;11.50;;;10.75;;
73959;SDS011;62316;48.920;2.342;2023-06-19T02:30:08;13.75;;;13.50;;
73959;SDS011;62316;48.920;2.342;2023-06-19T02:32:33;10.67;;;9.00;;
73959;SDS011;62316;48.920;2.342;2023-06-19T02:34:59;10.33;;;9.00;;
73959;SDS011;62316;48.920;2.342;2023-06-19T02:37:24;15.75;;;13.25;;
73959;SDS011;62316;48.920;2.342;2023-06-19T02:39:49;15.50;;;13.75;;
73959;SDS011;62316;48.920;2.342;2023-06-19T02:42:15;14.00;;;12.00;;
73959;SDS011;62316;48.920;2.342;2023-06-19T02:44:40;14.00;;;10.00;;
73959;SDS011;62316;48.920;2.342;2023-06-19T02:47:07;14.33;;;11.67;;
73959;SDS011;62316;48.920;2.342;2023-06-19T02:49:33;13.67;;;11.00;;
73959;SDS011;62316;48.920;2.342;2023-06-19T02:51:58;13.00;;;13.00;;
73959;SDS011;62316;48.920;2.342;2023-06-19T02:54:23;12.00;;;10.33;;
73959;SDS011;62316;48.920;2.342;2023-06-19T02:56:49;12.50;;;11.50;;
73959;SDS011;62316;48.920;2.342;2023-06-19T02:59:14;12.75;;;11.75;;
73959;SDS011;62316;48.920;2.342;2023-06-19T03:01:39;14.25;;;13.25;;
73959;SDS011;62316;48.920;2.342;2023-06-19T03:04:05;13.75;;;13.50;;
73959;SDS011;62316;48.920;2.342;2023-06-19T03:06:30;18.00;;;16.25;;
73959;SDS011;62316;48.920;2.342;2023-06-19T03:08:56;9.50;;;9.50;;
73959;SDS011;62316;48.920;2.342;2023-06-19T03:11:21;12.50;;;10.25;;
73959;SDS011;62316;48.920;2.342;2023-06-19T03:16:13;13.75;;;12.75;;
73959;SDS011;62316;48.920;2.342;2023-06-19T03:18:39;15.25;;;14.00;;
73959;SDS011;62316;48.920;2.342;2023-06-19T03:21:06;10.67;;;10.67;;
73959;SDS011;62316;48.920;2.342;2023-06-19T03:23:31;12.50;;;12.50;;
73959;SDS011;62316;48.920;2.342;2023-06-19T03:25:56;13.00;;;13.00;;
73959;SDS011;62316;48.920;2.342;2023-06-19T03:28:22;10.25;;;9.00;;
73959;SDS011;62316;48.920;2.342;2023-06-19T03:30:48;12.33;;;11.67;;
73959;SDS011;62316;48.920;2.342;2023-06-19T03:33:13;16.00;;;13.67;;
73959;SDS011;62316;48.920;2.342;2023-06-19T03:35:39;15.00;;;13.33;;
73959;SDS011;62316;48.920;2.342;2023-06-19T03:38:05;11.33;;;11.33;;
73959;SDS011;62316;48.920;2.342;2023-06-19T03:40:31;12.00;;;11.25;;
73959;SDS011;62316;48.920;2.342;2023-06-19T03:42:56;16.75;;;13.75;;
73959;SDS011;62316;48.920;2.342;2023-06-19T03:45:21;14.25;;;13.25;;
73959;SDS011;62316;48.920;2.342;2023-06-19T03:47:47;13.25;;;11.00;;
73959;SDS011;62316;48.920;2.342;2023-06-19T03:50:12;14.25;;;14.25;;
73959;SDS011;62316;48.920;2.342;2023-06-19T03:52:38;14.50;;;14.50;;
73959;SDS011;62316;48.920;2.342;2023-06-19T03:55:03;15.00;;;13.33;;
73959;SDS011;62316;48.920;2.342;2023-06-19T03:57:29;11.50;;;11.50;;
73959;SDS011;62316;48.920;2.342;2023-06-19T03:59:55;16.67;;;15.00;;
73959;SDS011;62316;48.920;2.342;2023-06-19T04:02:21;16.75;;;12.75;;
73959;SDS011;62316;48.920;2.342;2023-06-19T04:04:47;13.33;;;10.00;;
73959;SDS011;62316;48.920;2.342;2023-06-19T04:07:13;16.25;;;14.00;;
73959;SDS011;62316;48.920;2.342;2023-06-19T04:09:38;18.33;;;16.33;;
73959;SDS011;62316;48.920;2.342;2023-06-19T04:12:16;20.25;;;17.25;;
73959;SDS011;62316;48.920;2.342;2023-06-19T04:14:44;15.75;;;14.75;;
73959;SDS011;62316;48.920;2.342;2023-06-19T04:17:25;12.25;;;11.25;;
73959;SDS011;62316;48.920;2.342;2023-06-19T04:20:00;13.00;;;12.00;;
73959;SDS011;62316;48.920;2.342;2023-06-19T04:22:28;16.00;;;13.25;;
73959;SDS011;62316;48.920;2.342;2023-06-19T04:24:57;17.75;;;15.75;;
73959;SDS011;62316;48.920;2.342;2023-06-19T04:27:22;14.25;;;11.50;;
73959;SDS011;62316;48.920;2.342;2023-06-19T04:29:48;14.00;;;13.00;;
73959;SDS011;62316;48.920;2.342;2023-06-19T04:32:13;14.75;;;14.75;;
73959;SDS011;62316;48.920;2.342;2023-06-19T04:34:40;19.25;;;15.75;;
73959;SDS011;62316;48.920;2.342;2023-06-19T04:37:11;14.50;;;14.25;;
73959;SDS011;62316;48.920;2.342;2023-06-19T04:39:36;12.50;;;12.50;;
73959;SDS011;62316;48.920;2.342;2023-06-19T04:42:02;16.50;;;15.50;;
73959;SDS011;62316;48.920;2.342;2023-06-19T04:44:27;15.50;;;15.00;;
73959;SDS011;62316;48.920;2.342;2023-06-19T04:46:55;12.25;;;12.25;;
73959;SDS011;62316;48.920;2.342;2023-06-19T04:49:26;15.00;;;13.75;;
73959;SDS011;62316;48.920;2.342;2023-06-19T04:51:57;19.25;;;17.50;;
73959;SDS011;62316;48.920;2.342;2023-06-19T04:54:23;18.25;;;15.25;;
73959;SDS011;62316;48.920;2.342;2023-06-19T04:56:48;19.00;;;15.75;;
73959;SDS011;62316;48.920;2.342;2023-06-19T04:59:13;16.00;;;13.50;;
73959;SDS011;62316;48.920;2.342;2023-06-19T05:01:43;14.75;;;14.75;;
73959;SDS011;62316;48.920;2.342;2023-06-19T05:04:08;19.75;;;18.00;;
73959;SDS011;62316;48.920;2.342;2023-06-19T05:06:35;20.00;;;14.00;;
73959;SDS011;62316;48.920;2.342;2023-06-19T05:09:01;15.75;;;14.25;;
73959;SDS011;62316;48.920;2.342;2023-06-19T05:11:26;15.50;;;15.50;;
73959;SDS011;62316;48.920;2.342;2023-06-19T05:13:52;20.50;;;16.75;;
73959;SDS011;62316;48.920;2.342;2023-06-19T05:16:17;16.75;;;15.50;;
73959;SDS011;62316;48.920;2.342;2023-06-19T05:18:44;17.50;;;13.75;;
73959;SDS011;62316;48.920;2.342;2023-06-19T05:21:10;15.50;;;15.50;;
73959;SDS011;62316;48.920;2.342;2023-06-19T05:23:35;14.75;;;14.75;;
73959;SDS011;62316;48.920;2.342;2023-06-19T05:26:01;19.75;;;18.25;;
73959;SDS011;62316;48.920;2.342;2023-06-19T05:28:27;17.50;;;15.50;;
73959;SDS011;62316;48.920;2.342;2023-06-19T05:30:52;17.50;;;15.75;;
73959;SDS011;62316;48.920;2.342;2023-06-19T05:33:17;18.50;;;15.25;;
73959;SDS011;62316;48.920;2.342;2023-06-19T05:35:43;18.75;;;18.00;;
73959;SDS011;62316;48.920;2.342;2023-06-19T05:38:09;13.75;;;13.00;;
73959;SDS011;62316;48.920;2.342;2023-06-19T05:40:37;15.00;;;13.50;;
73959;SDS011;62316;48.920;2.342;2023-06-19T05:43:02;13.67;;;12.67;;
73959;SDS011;62316;48.920;2.342;2023-06-19T05:45:27;15.75;;;15.75;;
73959;SDS011;62316;48.920;2.342;2023-06-19T05:47:53;18.25;;;15.75;;
73959;SDS011;62316;48.920;2.342;2023-06-19T05:50:18;14.75;;;14.00;;
73959;SDS011;62316;48.920;2.342;2023-06-19T05:52:43;17.25;;;17.25;;
73959;SDS011;62316;48.920;2.342;2023-06-19T05:55:09;13.00;;;12.25;;
73959;SDS011;62316;48.920;2.342;2023-06-19T05:57:35;7.00;;;6.00;;
73959;SDS011;62316;48.920;2.342;2023-06-19T06:00:01;13.75;;;13.75;;
73959;SDS011;62316;48.920;2.342;2023-06-19T06:02:26;26.00;;;26.00;;
73959;SDS011;62316;48.920;2.342;2023-06-19T06:04:53;12.33;;;12.33;;
73959;SDS011;62316;48.920;2.342;2023-06-19T06:07:18;16.25;;;15.00;;
73959;SDS011;62316;48.920;2.342;2023-06-19T06:09:44;18.25;;;16.75;;
73959;SDS011;62316;48.920;2.342;2023-06-19T06:12:09;24.00;;;23.50;;
73959;SDS011;62316;48.920;2.342;2023-06-19T06:14:35;17.75;;;15.00;;
73959;SDS011;62316;48.920;2.342;2023-06-19T06:17:00;16.75;;;15.50;;
73959;SDS011;62316;48.920;2.342;2023-06-19T06:19:25;16.50;;;15.50;;
73959;SDS011;62316;48.920;2.342;2023-06-19T06:21:51;18.25;;;15.50;;
73959;SDS011;62316;48.920;2.342;2023-06-19T06:24:16;15.50;;;13.00;;
73959;SDS011;62316;48.920;2.342;2023-06-19T06:26:42;18.25;;;18.25;;
73959;SDS011;62316;48.920;2.342;2023-06-19T06:29:10;18.00;;;15.25;;
73959;SDS011;62316;48.920;2.342;2023-06-19T06:31:46;16.00;;;14.75;;
73959;SDS011;62316;48.920;2.342;2023-06-19T06:34:12;16.00;;;14.00;;
73959;SDS011;62316;48.920;2.342;2023-06-19T06:36:38;14.75;;;14.50;;
73959;SDS011;62316;48.920;2.342;2023-06-19T06:39:04;19.75;;;17.25;;
73959;SDS011;62316;48.920;2.342;2023-06-19T06:41:30;15.33;;;15.33;;
73959;SDS011;62316;48.920;2.342;2023-06-19T06:43:56;19.50;;;19.00;;
73959;SDS011;62316;48.920;2.342;2023-06-19T06:46:22;22.67;;;17.67;;
73959;SDS011;62316;48.920;2.342;2023-06-19T06:48:50;18.25;;;17.25;;
73959;SDS011;62316;48.920;2.342;2023-06-19T06:51:15;18.75;;;17.00;;
73959;SDS011;62316;48.920;2.342;2023-06-19T06:53:43;18.00;;;15.00;;
73959;SDS011;62316;48.920;2.342;2023-06-19T06:56:11;14.00;;;13.25;;
73959;SDS011;62316;48.920;2.342;2023-06-19T06:58:36;13.50;;;13.50;;
73959;SDS011;62316;48.920;2.342;2023-06-19T07:01:04;15.75;;;14.75;;
73959;SDS011;62316;48.920;2.342;2023-06-19T07:03:29;13.67;;;12.33;;
73959;SDS011;62316;48.920;2.342;2023-06-19T07:05:56;16.00;;;15.00;;
73959;SDS011;62316;48.920;2.342;2023-06-19T07:08:22;16.50;;;14.00;;
73959;SDS011;62316;48.920;2.342;2023-06-19T07:10:47;20.75;;;18.25;;
73959;SDS011;62316;48.920;2.342;2023-06-19T07:13:12;16.00;;;14.00;;
73959;SDS011;62316;48.920;2.342;2023-06-19T07:15:38;16.50;;;15.00;;
73959;SDS011;62316;48.920;2.342;2023-06-19T07:18:11;15.25;;;15.25;;
73959;SDS011;62316;48.920;2.342;2023-06-19T07:20:39;21.00;;;20.00;;
73959;SDS011;62316;48.920;2.342;2023-06-19T07:23:05;13.00;;;13.00;;
73959;SDS011;62316;48.920;2.342;2023-06-19T07:25:31;15.25;;;14.00;;
73959;SDS011;62316;48.920;2.342;2023-06-19T07:27:59;22.00;;;20.25;;
73959;SDS011;62316;48.920;2.342;2023-06-19T07:30:26;19.25;;;17.50;;
73959;SDS011;62316;48.920;2.342;2023-06-19T07:32:51;15.50;;;14.50;;
73959;SDS011;62316;48.920;2.342;2023-06-19T07:35:17;19.00;;;18.75;;
73959;SDS011;62316;48.920;2.342;2023-06-19T07:37:42;15.75;;;14.00;;
73959;SDS011;62316;48.920;2.342;2023-06-19T07:40:08;24.50;;;20.00;;
73959;SDS011;62316;48.920;2.342;2023-06-19T07:42:42;20.25;;;19.25;;
73959;SDS011;62316;48.920;2.342;2023-06-19T07:45:13;17.50;;;14.25;;
73959;SDS011;62316;48.920;2.342;2023-06-19T07:47:38;18.50;;;14.25;;
73959;SDS011;62316;48.920;2.342;2023-06-19T07:50:04;19.00;;;17.25;;
73959;SDS011;62316;48.920;2.342;2023-06-19T07:52:30;15.25;;;15.25;;
73959;SDS011;62316;48.920;2.342;2023-06-19T07:54:56;19.25;;;15.75;;
73959;SDS011;62316;48.920;2.342;2023-06-19T07:57:23;20.50;;;16.50;;
73959;SDS011;62316;48.920;2.342;2023-06-19T07:59:49;19.75;;;17.50;;
73959;SDS011;62316;48.920;2.342;2023-06-19T08:02:15;21.25;;;19.75;;
73959;SDS011;62316;48.920;2.342;2023-06-19T08:04:41;22.00;;;21.25;;
73959;SDS011;62316;48.920;2.342;2023-06-19T08:07:06;24.75;;;23.00;;
73959;SDS011;62316;48.920;2.342;2023-06-19T08:09:32;22.00;;;19.00;;
73959;SDS011;62316;48.920;2.342;2023-06-19T08:11:58;23.00;;;20.50;;
73959;SDS011;62316;48.920;2.342;2023-06-19T08:14:23;24.25;;;21.00;;
73959;SDS011;62316;48.920;2.342;2023-06-19T08:17:02;18.50;;;18.50;;
73959;SDS011;62316;48.920;2.342;2023-06-19T08:19:28;22.75;;;21.00;;
73959;SDS011;62316;48.920;2.342;2023-06-19T08:21:53;18.25;;;16.75;;
73959;SDS011;62316;48.920;2.342;2023-06-19T08:24:18;19.25;;;16.50;;
73959;SDS011;62316;48.920;2.342;2023-06-19T08:26:44;17.75;;;14.00;;
73959;SDS011;62316;48.920;2.342;2023-06-19T08:29:10;22.75;;;22.00;;
73959;SDS011;62316;48.920;2.342;2023-06-19T08:31:35;24.25;;;22.25;;
73959;SDS011;62316;48.920;2.342;2023-06-19T08:34:01;20.50;;;18.50;;
73959;SDS011;62316;48.920;2.342;2023-06-19T08:36:31;22.00;;;19.50;;
73959;SDS011;62316;48.920;2.342;2023-06-19T08:38:57;23.00;;;23.00;;
73959;SDS011;62316;48.920;2.342;2023-06-19T08:41:25;24.25;;;24.00;;
73959;SDS011;62316;48.920;2.342;2023-06-19T08:43:50;23.75;;;22.25;;
73959;SDS011;62316;48.920;2.342;2023-06-19T08:46:16;21.75;;;19.75;;
73959;SDS011;62316;48.920;2.342;2023-06-19T08:48:42;20.50;;;20.50;;
73959;SDS011;62316;48.920;2.342;2023-06-19T08:51:09;34.50;;;27.00;;
73959;SDS011;62316;48.920;2.342;2023-06-19T08:53:36;21.50;;;21.50;;
73959;SDS011;62316;48.920;2.342;2023-06-19T08:56:11;22.75;;;19.75;;
73959;SDS011;62316;48.920;2.342;2023-06-19T08:58:37;21.00;;;18.75;;
73959;SDS011;62316;48.920;2.342;2023-06-19T09:01:03;23.00;;;22.50;;
73959;SDS011;62316;48.920;2.342;2023-06-19T09:03:28;24.75;;;24.75;;
73959;SDS011;62316;48.920;2.342;2023-06-19T09:05:54;18.75;;;18.25;;
73959;SDS011;62316;48.920;2.342;2023-06-19T09:08:19;20.00;;;19.00;;
73959;SDS011;62316;48.920;2.342;2023-06-19T09:10:56;17.33;;;16.33;;
73959;SDS011;62316;48.920;2.342;2023-06-19T09:13:22;18.00;;;16.00;;
73959;SDS011;62316;48.920;2.342;2023-06-19T09:15:47;16.25;;;16.25;;
73959;SDS011;62316;48.920;2.342;2023-06-19T09:18:22;16.50;;;15.50;;
73959;SDS011;62316;48.920;2.342;2023-06-19T09:20:47;17.00;;;16.00;;
73959;SDS011;62316;48.920;2.342;2023-06-19T09:23:18;19.75;;;17.25;;
73959;SDS011;62316;48.920;2.342;2023-06-19T09:25:48;16.75;;;16.75;;
73959;SDS011;62316;48.920;2.342;2023-06-19T09:28:18;19.00;;;16.50;;
73959;SDS011;62316;48.920;2.342;2023-06-19T09:31:02;21.25;;;19.25;;
73959;SDS011;62316;48.920;2.342;2023-06-19T09:33:29;19.50;;;17.25;;
73959;SDS011;62316;48.920;2.342;2023-06-19T09:35:56;21.50;;;19.75;;
73959;SDS011;62316;48.920;2.342;2023-06-19T09:38:24;17.75;;;16.25;;
73959;SDS011;62316;48.920;2.342;2023-06-19T09:40:55;18.00;;;16.00;;
73959;SDS011;62316;48.920;2.342;2023-06-19T09:43:33;15.75;;;13.75;;
73959;SDS011;62316;48.920;2.342;2023-06-19T09:46:03;17.50;;;15.00;;
73959;SDS011;62316;48.920;2.342;2023-06-19T09:48:30;17.50;;;16.25;;
73959;SDS011;62316;48.920;2.342;2023-06-19T09:51:40;12.50;;;12.50;;
73959;SDS011;62316;48.920;2.342;2023-06-19T09:53:50;18.50;;;16.00;;
73959;SDS011;62316;48.920;2.342;2023-06-19T09:56:16;20.67;;;18.00;;
73959;SDS011;62316;48.920;2.342;2023-06-19T09:58:46;17.75;;;16.75;;
73959;SDS011;62316;48.920;2.342;2023-06-19T10:01:14;21.50;;;20.00;;
73959;SDS011;62316;48.920;2.342;2023-06-19T10:03:40;21.25;;;19.75;;
73959;SDS011;62316;48.920;2.342;2023-06-19T10:06:05;14.00;;;14.00;;
73959;SDS011;62316;48.920;2.342;2023-06-19T10:08:32;13.00;;;13.00;;
73959;SDS011;62316;48.920;2.342;2023-06-19T10:11:04;12.67;;;11.33;;
73959;SDS011;62316;48.920;2.342;2023-06-19T10:13:33;13.00;;;10.50;;
73959;SDS011;62316;48.920;2.342;2023-06-19T10:16:00;13.00;;;13.00;;
73959;SDS011;62316;48.920;2.342;2023-06-19T10:18:26;7.00;;;6.67;;
73959;SDS011;62316;48.920;2.342;2023-06-19T10:20:53;11.33;;;10.67;;
73959;SDS011;62316;48.920;2.342;2023-06-19T10:23:20;12.00;;;11.00;;
73959;SDS011;62316;48.920;2.342;2023-06-19T10:28:20;11.67;;;9.00;;
73959;SDS011;62316;48.920;2.342;2023-06-19T10:30:59;8.00;;;8.00;;
73959;SDS011;62316;48.920;2.342;2023-06-19T10:33:34;9.33;;;8.33;;
73959;SDS011;62316;48.920;2.342;2023-06-19T10:36:18;8.33;;;8.33;;
73959;SDS011;62316;48.920;2.342;2023-06-19T10:38:47;10.67;;;9.33;;
73959;SDS011;62316;48.920;2.342;2023-06-19T10:41:19;8.67;;;8.00;;
73959;SDS011;62316;48.920;2.342;2023-06-19T10:43:59;13.67;;;9.67;;
73959;SDS011;62316;48.920;2.342;2023-06-19T10:46:47;9.00;;;9.00;;
73959;SDS011;62316;48.920;2.342;2023-06-19T10:49:12;12.00;;;9.00;;
73959;SDS011;62316;48.920;2.342;2023-06-19T10:51:39;9.33;;;7.67;;
73959;SDS011;62316;48.920;2.342;2023-06-19T10:54:06;7.00;;;7.00;;
73959;SDS011;62316;48.920;2.342;2023-06-19T10:56:32;13.00;;;10.00;;
73959;SDS011;62316;48.920;2.342;2023-06-19T10:59:01;10.67;;;9.00;;
73959;SDS011;62316;48.920;2.342;2023-06-19T11:01:43;9.33;;;9.33;;
73959;SDS011;62316;48.920;2.342;2023-06-19T11:04:10;12.33;;;10.00;;
73959;SDS011;62316;48.920;2.342;2023-06-19T11:06:40;10.33;;;8.67;;
73959;SDS011;62316;48.920;2.342;2023-06-19T11:09:07;9.25;;;8.25;;
73959;SDS011;62316;48.920;2.342;2023-06-19T11:14:06;10.00;;;10.00;;
73959;SDS011;62316;48.920;2.342;2023-06-19T11:16:32;12.00;;;9.50;;
73959;SDS011;62316;48.920;2.342;2023-06-19T11:18:58;10.00;;;8.67;;
73959;SDS011;62316;48.920;2.342;2023-06-19T11:21:31;14.67;;;13.67;;
73959;SDS011;62316;48.920;2.342;2023-06-19T11:24:02;17.50;;;15.00;;
73959;SDS011;62316;48.920;2.342;2023-06-19T11:26:28;11.33;;;11.00;;
73959;SDS011;62316;48.920;2.342;2023-06-19T11:28:53;10.67;;;10.00;;
73959;SDS011;62316;48.920;2.342;2023-06-19T11:31:26;14.00;;;12.75;;
73959;SDS011;62316;48.920;2.342;2023-06-19T11:33:55;12.00;;;12.00;;
73959;SDS011;62316;48.920;2.342;2023-06-19T11:36:22;11.00;;;11.00;;
73959;SDS011;62316;48.920;2.342;2023-06-19T11:38:49;13.25;;;13.25;;
73959;SDS011;62316;48.920;2.342;2023-06-19T11:41:24;13.33;;;12.00;;
73959;SDS011;62316;48.920;2.342;2023-06-19T11:43:51;12.75;;;12.50;;
73959;SDS011;62316;48.920;2.342;2023-06-19T11:46:27;19.00;;;17.00;;
73959;SDS011;62316;48.920;2.342;2023-06-19T11:48:53;13.00;;;12.00;;
73959;SDS011;62316;48.920;2.342;2023-06-19T11:51:19;11.00;;;11.00;;
73959;SDS011;62316;48.920;2.342;2023-06-19T11:53:44;13.33;;;10.67;;
73959;SDS011;62316;48.920;2.342;2023-06-19T11:56:10;15.25;;;15.25;;
73959;SDS011;62316;48.920;2.342;2023-06-19T11:58:38;15.00;;;15.00;;
73959;SDS011;62316;48.920;2.342;2023-06-19T12:01:04;11.25;;;11.25;;
73959;SDS011;62316;48.920;2.342;2023-06-19T12:03:29;11.00;;;10.33;;
73959;SDS011;62316;48.920;2.342;2023-06-19T12:06:00;9.67;;;9.67;;
73959;SDS011;62316;48.920;2.342;2023-06-19T12:08:36;13.33;;;12.00;;
73959;SDS011;62316;48.920;2.342;2023-06-19T12:11:21;12.25;;;12.25;;
73959;SDS011;62316;48.920;2.342;2023-06-19T12:13:47;8.00;;;8.00;;
73959;SDS011;62316;48.920;2.342;2023-06-19T12:16:22;14.75;;;14.50;;
73959;SDS011;62316;48.920;2.342;2023-06-19T12:18:55;12.25;;;11.25;;
73959;SDS011;62316;48.920;2.342;2023-06-19T12:21:21;9.50;;;8.75;;
73959;SDS011;62316;48.920;2.342;2023-06-19T12:23:48;14.25;;;12.50;;
73959;SDS011;62316;48.920;2.342;2023-06-19T12:26:19;11.67;;;10.67;;
73959;SDS011;62316;48.920;2.342;2023-06-19T12:28:49;13.00;;;13.00;;
73959;SDS011;62316;48.920;2.342;2023-06-19T12:31:15;11.67;;;10.33;;
73959;SDS011;62316;48.920;2.342;2023-06-19T12:33:40;12.33;;;11.33;;
73959;SDS011;62316;48.920;2.342;2023-06-19T12:36:09;15.67;;;14.00;;
73959;SDS011;62316;48.920;2.342;2023-06-19T12:38:37;15.00;;;12.50;;
73959;SDS011;62316;48.920;2.342;2023-06-19T12:41:04;10.33;;;10.33;;
73959;SDS011;62316;48.920;2.342;2023-06-19T12:43:29;13.75;;;13.75;;
73959;SDS011;62316;48.920;2.342;2023-06-19T12:45:57;12.50;;;10.00;;
73959;SDS011;62316;48.920;2.342;2023-06-19T12:48:24;13.00;;;11.75;;
73959;SDS011;62316;48.920;2.342;2023-06-19T12:50:50;11.50;;;10.75;;
73959;SDS011;62316;48.920;2.342;2023-06-19T12:53:19;5.33;;;5.33;;
73959;SDS011;62316;48.920;2.342;2023-06-19T12:55:44;11.00;;;11.00;;
73959;SDS011;62316;48.920;2.342;2023-06-19T12:58:17;12.75;;;12.00;;
73959;SDS011;62316;48.920;2.342;2023-06-19T13:00:52;16.00;;;14.25;;
73959;SDS011;62316;48.920;2.342;2023-06-19T13:03:21;15.33;;;13.67;;
73959;SDS011;62316;48.920;2.342;2023-06-19T13:05:49;13.00;;;12.00;;
73959;SDS011;62316;48.920;2.342;2023-06-19T13:08:17;11.33;;;11.00;;
73959;SDS011;62316;48.920;2.342;2023-06-19T13:10:43;12.00;;;11.67;;
73959;SDS011;62316;48.920;2.342;2023-06-19T13:13:08;10.50;;;10.50;;
73959;SDS011;62316;48.920;2.342;2023-06-19T13:15:38;10.33;;;9.67;;
73959;SDS011;62316;48.920;2.342;2023-06-19T13:18:03;11.67;;;10.67;;
73959;SDS011;62316;48.920;2.342;2023-06-19T13:20:32;12.67;;;12.33;;
73959;SDS011;62316;48.920;2.342;2023-06-19T13:23:10;10.33;;;10.33;;
73959;SDS011;62316;48.920;2.342;2023-06-19T13:25:38;14.33;;;14.33;;
73959;SDS011;62316;48.920;2.342;2023-06-19T13:28:07;13.67;;;11.00;;
73959;SDS011;62316;48.920;2.342;2023-06-19T13:30:35;9.67;;;9.33;;
73959;SDS011;62316;48.920;2.342;2023-06-19T13:33:05;16.67;;;12.33;;
73959;SDS011;62316;48.920;2.342;2023-06-19T13:35:31;16.33;;;16.33;;
73959;SDS011;62316;48.920;2.342;2023-06-19T13:38:06;12.50;;;12.00;;
73959;SDS011;62316;48.920;2.342;2023-06-19T13:40:32;13.25;;;11.50;;
73959;SDS011;62316;48.920;2.342;2023-06-19T13:43:15;12.67;;;12.33;;
73959;SDS011;62316;48.920;2.342;2023-06-19T13:45:48;14.25;;;13.75;;
73959;SDS011;62316;48.920;2.342;2023-06-19T13:48:16;12.00;;;12.00;;
73959;SDS011;62316;48.920;2.342;2023-06-19T13:50:52;10.67;;;10.67;;
73959;SDS011;62316;48.920;2.342;2023-06-19T13:53:20;6.67;;;6.67;;
73959;SDS011;62316;48.920;2.342;2023-06-19T13:55:57;13.67;;;13.00;;
73959;SDS011;62316;48.920;2.342;2023-06-19T13:58:22;15.33;;;14.33;;
73959;SDS011;62316;48.920;2.342;2023-06-19T14:00:48;12.33;;;11.33;;
73959;SDS011;62316;48.920;2.342;2023-06-19T14:03:14;12.00;;;11.00;;
73959;SDS011;62316;48.920;2.342;2023-06-19T14:05:41;17.50;;;16.75;;
73959;SDS011;62316;48.920;2.342;2023-06-19T14:08:07;15.50;;;14.25;;
73959;SDS011;62316;48.920;2.342;2023-06-19T14:10:33;15.00;;;13.67;;
73959;SDS011;62316;48.920;2.342;2023-06-19T14:12:58;11.33;;;11.33;;
73959;SDS011;62316;48.920;2.342;2023-06-19T14:15:24;15.25;;;14.25;;
73959;SDS011;62316;48.920;2.342;2023-06-19T14:17:49;13.25;;;12.25;;
73959;SDS011;62316;48.920;2.342;2023-06-19T14:20:15;13.33;;;13.33;;
73959;SDS011;62316;48.920;2.342;2023-06-19T14:22:40;13.33;;;10.67;;
73959;SDS011;62316;48.920;2.342;2023-06-19T14:25:06;13.25;;;12.00;;
73959;SDS011;62316;48.920;2.342;2023-06-19T14:27:40;16.00;;;14.25;;
73959;SDS011;62316;48.920;2.342;2023-06-19T14:30:13;17.25;;;16.25;;
73959;SDS011;62316;48.920;2.342;2023-06-19T14:32:39;17.25;;;16.25;;
73959;SDS011;62316;48.920;2.342;2023-06-19T14:35:07;15.25;;;13.25;;